KWRL/WRL METAR and TAF weather

Enter ICAO airport designator
Station Type Date Time Source
KWRL METAR 2019/06/16 12:53 UTC NOAA

KWRL 161253Z AUTO 00000KT 10SM OVC080 14/12 A3005 RMK AO2 SLP148 T01390122


Station Type Date Time Source
KWRL Decoded METAR 2019/06/16 12:53 UTC NOAA

WORLAND MUNICIPAL AIRPORT, WY, United States (KWRL) 43-58N 107-57W 1271M
Jun 16, 2019 - 08:53 AM EDT / 2019.06.16 1253 UTC
Wind: Calm:0
Visibility: 10 mile(s):0
Sky conditions: overcast
Temperature: 57.0 F (13.9 C)
Dew Point: 54.0 F (12.2 C)
Relative Humidity: 89%
Pressure (altimeter): 30.05 in. Hg (1017 hPa)
ob: KWRL 161253Z AUTO 00000KT 10SM OVC080 14/12 A3005 RMK AO2 SLP148 T01390122
cycle: 13

Station Type Date Time Source
KWRL TAF 2019/06/16 12:24 UTC NOAA

TAF KWRL 161123Z 1612/1712 VRB05KT P6SM SCT090
FM162100 02009KT P6SM VCTS SCT060 BKN080CB
FM170300 VRB04KT P6SM BKN120

Example: see airport list